createdAt,value
2022-08-18T00:00:52.481Z,18.20
2022-08-18T00:02:30.735Z,18.20
2022-08-18T00:04:21.739Z,18.20
2022-08-18T00:05:57.388Z,18.20
2022-08-18T00:07:33.334Z,18.30
2022-08-18T00:09:07.940Z,18.30
2022-08-18T00:10:42.762Z,18.40
2022-08-18T00:12:18.356Z,18.50
2022-08-18T00:13:51.498Z,18.50
2022-08-18T00:15:26.590Z,18.60
2022-08-18T00:16:59.696Z,18.60
2022-08-18T00:18:31.906Z,18.70
2022-08-18T00:20:08.879Z,18.70
2022-08-18T00:21:41.101Z,18.70
2022-08-18T00:23:14.775Z,18.80
2022-08-18T00:24:51.715Z,18.80
2022-08-18T00:26:24.026Z,18.80
2022-08-18T00:27:57.117Z,18.90
2022-08-18T00:29:29.268Z,19.00
2022-08-18T00:31:05.502Z,18.90
2022-08-18T00:32:41.540Z,18.90
2022-08-18T00:34:14.694Z,18.80
2022-08-18T00:35:47.857Z,18.70
2022-08-18T00:37:20.255Z,18.60
2022-08-18T00:38:53.481Z,18.50
2022-08-18T00:40:35.775Z,18.40
2022-08-18T00:42:27.664Z,18.30
2022-08-18T00:44:04.954Z,18.30
2022-08-18T00:45:41.933Z,18.30
2022-08-18T00:47:16.659Z,18.30
2022-08-18T00:49:09.772Z,18.30
2022-08-18T00:50:48.005Z,18.30
2022-08-18T00:52:23.306Z,18.30
2022-08-18T00:54:02.939Z,18.50
2022-08-18T00:55:36.694Z,18.50
2022-08-18T00:57:17.206Z,18.50
2022-08-18T00:58:53.877Z,18.50
2022-08-18T01:00:27.122Z,18.50
2022-08-18T01:02:04.273Z,18.50
2022-08-18T01:03:40.316Z,18.40
2022-08-18T01:05:18.950Z,18.40
2022-08-18T01:06:57.913Z,18.30
2022-08-18T01:08:30.232Z,18.30
2022-08-18T01:10:05.425Z,18.20
2022-08-18T01:11:40.054Z,18.20
2022-08-18T01:13:13.249Z,18.10
2022-08-18T01:14:48.041Z,18.10
2022-08-18T01:16:36.474Z,18.00
2022-08-18T01:18:30.506Z,18.00
2022-08-18T01:20:23.932Z,18.10
2022-08-18T01:22:03.698Z,18.20
2022-08-18T01:23:39.385Z,18.20
2022-08-18T01:25:29.990Z,18.10
2022-08-18T01:27:03.181Z,18.10
2022-08-18T01:28:38.239Z,18.00
2022-08-18T01:30:15.154Z,18.00
2022-08-18T01:31:55.435Z,18.00
2022-08-18T01:33:32.402Z,18.00
2022-08-18T01:35:08.926Z,18.00
2022-08-18T01:36:43.454Z,18.10
2022-08-18T01:38:18.650Z,18.10
2022-08-18T01:41:23.494Z,18.10
2022-08-18T01:41:46.572Z,18.10
2022-08-18T01:43:18.763Z,18.00
2022-08-18T01:44:52.953Z,17.90
2022-08-18T01:46:25.545Z,17.90
2022-08-18T01:47:59.773Z,17.90
2022-08-18T01:49:32.107Z,18.00
2022-08-18T01:51:06.767Z,18.00
2022-08-18T01:52:40.759Z,18.00
2022-08-18T01:54:15.952Z,18.00
2022-08-18T01:55:50.550Z,18.10
2022-08-18T01:57:23.002Z,18.10
2022-08-18T01:58:56.929Z,18.20
2022-08-18T02:00:32.273Z,18.20
2022-08-18T02:02:06.176Z,18.20
2022-08-18T02:03:44.225Z,18.20
2022-08-18T02:05:19.865Z,18.10
2022-08-18T02:06:53.229Z,18.10
2022-08-18T02:08:28.097Z,18.10
2022-08-18T02:10:01.562Z,18.10
2022-08-18T02:11:36.914Z,18.00
2022-08-18T02:13:10.925Z,18.00
2022-08-18T02:14:45.063Z,18.00
2022-08-18T02:16:18.400Z,18.00
2022-08-18T02:17:51.714Z,18.00
2022-08-18T02:19:24.034Z,18.00
2022-08-18T02:20:58.004Z,18.00
2022-08-18T02:22:31.148Z,18.10
2022-08-18T02:24:04.902Z,18.10
2022-08-18T02:25:37.498Z,18.10
2022-08-18T02:27:13.520Z,18.20
2022-08-18T02:28:47.291Z,18.20
2022-08-18T02:30:20.945Z,18.20
2022-08-18T02:31:54.455Z,18.20
2022-08-18T02:33:26.651Z,18.20
2022-08-18T02:35:00.087Z,18.20
2022-08-18T02:36:33.212Z,18.10
2022-08-18T02:38:07.290Z,18.00
2022-08-18T02:39:41.426Z,18.00
2022-08-18T02:41:15.666Z,17.90
2022-08-18T02:42:52.614Z,17.90
2022-08-18T02:44:25.753Z,18.00
2022-08-18T02:45:59.653Z,17.90
2022-08-18T02:47:33.790Z,18.00
2022-08-18T02:49:08.607Z,17.90
2022-08-18T02:50:45.522Z,18.00
2022-08-18T02:52:18.859Z,17.90
2022-08-18T02:53:51.975Z,18.00
2022-08-18T02:55:29.305Z,17.90
2022-08-18T02:57:08.403Z,17.90
2022-08-18T02:58:42.409Z,17.90
2022-08-18T03:00:18.817Z,17.90
2022-08-18T03:01:55.384Z,18.00
2022-08-18T03:03:27.590Z,17.90
2022-08-18T03:05:00.892Z,17.90
2022-08-18T03:06:35.370Z,18.00
2022-08-18T03:08:11.537Z,18.00
2022-08-18T03:09:45.038Z,18.00
2022-08-18T03:11:18.739Z,18.00
2022-08-18T03:12:51.872Z,18.00
2022-08-18T03:14:27.086Z,18.00
2022-08-18T03:16:00.240Z,18.00
2022-08-18T03:17:37.841Z,18.00
2022-08-18T03:19:10.090Z,18.00
2022-08-18T03:20:45.373Z,18.00
2022-08-18T03:22:28.145Z,18.10
2022-08-18T03:24:03.209Z,18.10
2022-08-18T03:25:47.987Z,18.10
2022-08-18T03:27:21.125Z,18.10
2022-08-18T03:28:54.861Z,18.10
2022-08-18T03:30:29.357Z,18.10
2022-08-18T03:32:03.485Z,18.10
2022-08-18T03:33:37.796Z,18.10
2022-08-18T03:35:11.025Z,18.10
2022-08-18T03:36:45.466Z,18.10
2022-08-18T03:38:18.613Z,18.10
2022-08-18T03:39:52.842Z,18.10
2022-08-18T03:41:57.543Z,18.10
2022-08-18T03:43:23.700Z,18.20
2022-08-18T03:45:17.795Z,18.00
2022-08-18T03:46:52.786Z,17.90
2022-08-18T03:48:26.334Z,17.90
2022-08-18T03:49:59.945Z,17.90
2022-08-18T03:51:33.835Z,17.90
2022-08-18T03:53:07.000Z,17.80
2022-08-18T03:54:40.766Z,17.80
2022-08-18T03:56:17.731Z,17.80
2022-08-18T03:57:53.171Z,17.70
2022-08-18T03:59:27.589Z,17.80
2022-08-18T04:01:02.201Z,17.70
2022-08-18T04:02:36.796Z,17.80
2022-08-18T04:04:11.441Z,17.80
2022-08-18T04:05:44.772Z,17.80
2022-08-18T04:07:18.999Z,17.80
2022-08-18T04:08:53.492Z,17.80
2022-08-18T04:10:26.955Z,17.70
2022-08-18T04:12:16.304Z,17.80
2022-08-18T04:13:50.274Z,17.70
2022-08-18T04:15:23.371Z,17.60
2022-08-18T04:16:56.499Z,17.60
2022-08-18T04:18:32.157Z,17.60
2022-08-18T04:20:06.176Z,17.50
2022-08-18T04:21:42.197Z,17.40
2022-08-18T04:23:16.321Z,17.30
2022-08-18T04:24:50.799Z,17.30
2022-08-18T04:26:23.059Z,17.30
2022-08-18T04:27:57.940Z,17.20
2022-08-18T04:29:31.203Z,17.20
2022-08-18T04:31:09.159Z,17.20
2022-08-18T04:32:43.728Z,17.20
2022-08-18T04:34:20.445Z,17.30
2022-08-18T04:35:52.735Z,17.30
2022-08-18T04:37:25.998Z,17.30
2022-08-18T04:38:59.796Z,17.30
2022-08-18T04:40:33.916Z,17.40
2022-08-18T04:42:07.241Z,17.40
2022-08-18T04:43:41.096Z,17.40
2022-08-18T04:45:14.286Z,17.50
2022-08-18T04:46:49.899Z,17.60
2022-08-18T04:48:22.884Z,17.70
2022-08-18T04:49:57.432Z,17.80
2022-08-18T04:52:34.067Z,17.90
2022-08-18T04:53:42.119Z,18.00
2022-08-18T04:55:15.245Z,18.20
2022-08-18T04:56:48.512Z,18.30
2022-08-18T04:58:22.628Z,18.50
2022-08-18T04:59:58.149Z,18.80
2022-08-18T05:01:32.118Z,18.90
2022-08-18T05:03:05.357Z,19.10
2022-08-18T05:04:40.843Z,19.30
2022-08-18T05:06:15.399Z,19.50
2022-08-18T05:07:48.864Z,19.70
2022-08-18T05:09:22.980Z,19.80
2022-08-18T05:11:03.178Z,20.00
2022-08-18T05:12:37.121Z,20.20
2022-08-18T05:14:10.564Z,20.40
2022-08-18T05:16:09.042Z,20.60
2022-08-18T05:17:39.674Z,20.80
2022-08-18T05:19:12.916Z,20.90
2022-08-18T05:20:46.083Z,21.00
2022-08-18T05:22:30.444Z,21.10
2022-08-18T05:24:05.989Z,21.20
2022-08-18T05:25:40.056Z,21.20
2022-08-18T05:27:14.104Z,21.30
2022-08-18T05:28:48.484Z,21.20
2022-08-18T05:30:24.306Z,21.30
2022-08-18T05:31:57.483Z,21.20
2022-08-18T05:33:30.631Z,21.10
2022-08-18T05:35:05.987Z,21.00
2022-08-18T05:36:57.673Z,21.00
2022-08-18T05:38:42.421Z,20.90
2022-08-18T05:40:15.234Z,20.90
2022-08-18T05:41:52.797Z,21.10
2022-08-18T05:43:25.982Z,21.20
2022-08-18T05:44:59.213Z,21.50
2022-08-18T05:46:43.505Z,22.00
2022-08-18T05:48:16.690Z,23.30
2022-08-18T05:49:50.770Z,24.80
2022-08-18T05:51:29.530Z,26.30
2022-08-18T05:53:09.298Z,27.10
2022-08-18T05:55:09.934Z,27.90
2022-08-18T05:56:48.273Z,28.80
2022-08-18T05:58:32.911Z,29.20
2022-08-18T06:00:10.564Z,29.60
2022-08-18T06:01:52.591Z,29.60
2022-08-18T06:03:45.062Z,30.00
2022-08-18T06:05:25.305Z,30.40
2022-08-18T06:07:02.602Z,31.20
2022-08-18T06:08:43.636Z,31.20
2022-08-18T06:10:19.096Z,31.30
2022-08-18T06:11:54.053Z,31.70
2022-08-18T06:13:27.234Z,31.90
2022-08-18T06:15:09.321Z,32.20
2022-08-18T06:16:56.049Z,32.00
2022-08-18T06:18:48.357Z,32.20
2022-08-18T06:20:31.556Z,32.50
2022-08-18T06:22:13.454Z,32.70
2022-08-18T06:23:55.598Z,33.00
2022-08-18T06:25:38.434Z,33.00
2022-08-18T06:27:22.916Z,33.00
2022-08-18T06:29:07.232Z,32.70
2022-08-18T06:30:50.492Z,32.70
2022-08-18T06:32:34.215Z,32.60
2022-08-18T06:34:18.154Z,33.00
2022-08-18T06:35:56.107Z,33.90
2022-08-18T06:37:55.863Z,34.00
2022-08-18T06:39:46.266Z,34.20
2022-08-18T06:41:40.971Z,34.30
2022-08-18T06:43:18.118Z,34.50
2022-08-18T06:44:54.019Z,34.80
2022-08-18T06:46:37.489Z,35.20
2022-08-18T06:48:19.083Z,35.80
2022-08-18T06:49:56.989Z,36.00
2022-08-18T06:51:30.282Z,35.50
2022-08-18T06:53:06.940Z,36.10
2022-08-18T06:55:02.861Z,36.80
2022-08-18T06:56:48.528Z,37.60
2022-08-18T06:58:26.959Z,36.50
2022-08-18T07:00:04.891Z,36.40
2022-08-18T07:01:39.683Z,37.00
2022-08-18T07:03:17.822Z,36.90
2022-08-18T07:05:02.814Z,37.50
2022-08-18T07:06:36.147Z,37.10
2022-08-18T07:08:18.383Z,36.70
2022-08-18T07:09:51.850Z,37.10
2022-08-18T07:11:27.462Z,36.70
2022-08-18T07:13:26.367Z,35.70
2022-08-18T07:15:03.170Z,34.00
2022-08-18T07:18:30.353Z,31.70
2022-08-18T07:20:18.541Z,30.70
2022-08-18T07:22:04.410Z,30.20
2022-08-18T07:23:40.187Z,29.80
2022-08-18T07:25:24.459Z,29.30
2022-08-18T07:27:03.367Z,28.90
2022-08-18T07:28:40.659Z,28.50
2022-08-18T07:30:25.670Z,28.60
2022-08-18T07:32:02.260Z,28.70
2022-08-18T07:33:35.647Z,28.50
2022-08-18T07:35:11.538Z,28.80
2022-08-18T07:36:50.366Z,28.70
2022-08-18T07:38:44.270Z,28.90
2022-08-18T07:40:24.973Z,29.20
2022-08-18T07:42:07.490Z,29.50
2022-08-18T07:43:52.496Z,29.40
2022-08-18T07:45:30.741Z,29.40
2022-08-18T07:47:09.378Z,29.70
2022-08-18T07:48:42.859Z,29.60
2022-08-18T07:50:31.570Z,29.70
2022-08-18T07:52:44.112Z,29.80
2022-08-18T07:54:44.924Z,29.60
2022-08-18T07:56:17.286Z,29.50
2022-08-18T07:57:57.442Z,29.30
2022-08-18T07:59:40.796Z,29.40
2022-08-18T08:01:23.204Z,29.40
2022-08-18T08:03:11.197Z,29.40
2022-08-18T08:04:54.165Z,29.30
2022-08-18T08:06:33.922Z,29.40
2022-08-18T08:08:21.358Z,29.30
2022-08-18T08:10:08.724Z,29.10
2022-08-18T08:11:53.057Z,28.90
2022-08-18T08:13:54.672Z,28.90
2022-08-18T08:15:41.357Z,29.00
2022-08-18T08:17:25.524Z,28.90
2022-08-18T08:19:12.081Z,29.20
2022-08-18T08:20:50.787Z,29.40
2022-08-18T08:22:31.849Z,29.50
2022-08-18T08:24:14.196Z,29.80
2022-08-18T08:25:57.762Z,30.00
2022-08-18T08:27:49.953Z,30.10
2022-08-18T08:29:37.201Z,30.40
2022-08-18T08:31:36.316Z,30.50
2022-08-18T08:33:18.510Z,30.50
2022-08-18T08:34:58.183Z,30.60
2022-08-18T08:36:36.848Z,30.70
2022-08-18T08:38:39.081Z,31.00
2022-08-18T08:40:14.015Z,31.30
2022-08-18T08:41:51.933Z,31.80
2022-08-18T08:43:31.495Z,32.30
2022-08-18T08:45:10.209Z,32.60
2022-08-18T08:46:49.509Z,32.20
2022-08-18T08:48:26.867Z,32.10
2022-08-18T08:50:03.905Z,32.10
2022-08-18T08:51:43.115Z,32.40
2022-08-18T08:53:22.506Z,33.00
2022-08-18T08:54:59.436Z,33.80
2022-08-18T08:56:36.896Z,34.60
2022-08-18T08:58:19.725Z,34.60
2022-08-18T08:59:53.540Z,34.40
2022-08-18T09:01:33.245Z,34.00
2022-08-18T09:03:31.655Z,33.90
2022-08-18T09:05:10.606Z,33.90
2022-08-18T09:06:52.181Z,33.80
2022-08-18T09:09:03.337Z,33.90
2022-08-18T09:10:59.368Z,34.00
2022-08-18T09:12:56.167Z,35.10
2022-08-18T09:15:05.583Z,36.40
2022-08-18T09:16:52.078Z,36.90
2022-08-18T09:18:50.737Z,36.40
2022-08-18T09:20:47.136Z,36.30
2022-08-18T09:22:42.330Z,35.90
2022-08-18T09:24:23.362Z,35.30
2022-08-18T09:26:00.253Z,34.90
2022-08-18T09:28:07.353Z,34.60
2022-08-18T09:29:51.329Z,34.10
2022-08-18T09:31:25.304Z,34.50
2022-08-18T09:33:19.063Z,35.50
2022-08-18T09:35:04.389Z,36.60
2022-08-18T09:36:51.434Z,37.50
2022-08-18T09:38:45.220Z,36.90
2022-08-18T09:41:02.037Z,36.50
2022-08-18T09:42:48.374Z,36.60
2022-08-18T09:45:02.057Z,36.30
2022-08-18T09:47:01.325Z,35.70
2022-08-18T09:48:36.504Z,35.00
2022-08-18T09:50:55.350Z,35.00
2022-08-18T09:53:02.401Z,35.00
2022-08-18T09:54:52.374Z,35.10
2022-08-18T09:57:07.941Z,34.90
2022-08-18T09:58:58.619Z,34.50
2022-08-18T10:00:33.555Z,34.40
2022-08-18T10:04:34.272Z,34.40
2022-08-18T10:06:20.856Z,34.90
2022-08-18T10:08:33.349Z,35.30
2022-08-18T10:11:00.877Z,35.40
2022-08-18T10:12:39.689Z,35.90
2022-08-18T10:14:51.331Z,36.10
2022-08-18T10:16:51.077Z,35.90
2022-08-18T10:18:53.123Z,35.20
2022-08-18T10:20:41.219Z,36.60
2022-08-18T10:22:38.328Z,36.50
2022-08-18T10:29:02.973Z,34.90
2022-08-18T10:31:05.915Z,35.10
2022-08-18T10:32:54.129Z,35.30
2022-08-18T10:34:40.210Z,35.20
2022-08-18T10:36:46.492Z,35.20
2022-08-18T10:38:30.738Z,34.00
2022-08-18T10:40:14.816Z,33.50
2022-08-18T10:42:01.290Z,33.60
2022-08-18T10:43:55.067Z,33.00
2022-08-18T10:45:35.221Z,32.90
2022-08-18T10:47:12.197Z,32.20
2022-08-18T10:48:44.912Z,32.00
2022-08-18T10:50:22.007Z,31.70
2022-08-18T10:52:13.178Z,31.50
2022-08-18T10:53:51.163Z,31.60
2022-08-18T10:55:53.620Z,31.60
2022-08-18T10:57:34.178Z,31.60
2022-08-18T10:59:19.919Z,31.90
2022-08-18T11:01:14.437Z,31.90
2022-08-18T11:03:30.067Z,31.90
2022-08-18T11:04:58.583Z,31.50
2022-08-18T11:06:41.905Z,31.70
2022-08-18T11:08:18.556Z,31.60
2022-08-18T11:11:59.509Z,32.50
2022-08-18T11:13:45.036Z,32.20
2022-08-18T11:15:25.524Z,32.00
2022-08-18T11:17:08.824Z,32.20
2022-08-18T11:18:44.967Z,31.80
2022-08-18T11:20:28.197Z,31.10
2022-08-18T11:22:02.431Z,30.90
2022-08-18T11:23:35.602Z,31.00
2022-08-18T11:25:24.845Z,31.20
2022-08-18T11:27:03.269Z,31.10
2022-08-18T11:28:41.159Z,31.00
2022-08-18T11:30:20.204Z,31.00
2022-08-18T11:32:11.959Z,30.70
2022-08-18T11:33:45.349Z,30.80
2022-08-18T11:35:30.638Z,30.80
2022-08-18T11:37:08.904Z,30.50
2022-08-18T11:38:42.439Z,30.20
2022-08-18T11:42:31.102Z,30.20
2022-08-18T11:44:07.319Z,30.00
2022-08-18T11:45:53.998Z,29.80
2022-08-18T11:47:30.197Z,29.80
2022-08-18T11:49:16.836Z,29.90
2022-08-18T11:51:01.995Z,30.00
2022-08-18T11:52:48.556Z,30.00
2022-08-18T11:54:37.230Z,30.00
2022-08-18T11:56:30.865Z,30.00
2022-08-18T11:58:12.507Z,29.90
2022-08-18T11:59:52.857Z,29.80
2022-08-18T12:01:41.871Z,29.70
2022-08-18T12:03:24.084Z,29.70
2022-08-18T12:05:08.660Z,29.70
2022-08-18T12:06:59.702Z,29.60
2022-08-18T12:10:30.555Z,29.60
2022-08-18T12:12:08.028Z,29.50
2022-08-18T12:13:57.686Z,29.40
2022-08-18T12:15:44.713Z,29.50
2022-08-18T12:17:20.740Z,29.50
2022-08-18T12:18:55.238Z,29.60
2022-08-18T12:20:28.997Z,29.90
2022-08-18T12:22:11.164Z,30.00
2022-08-18T12:23:52.037Z,30.00
2022-08-18T12:25:25.958Z,29.80
2022-08-18T12:27:01.007Z,29.70
2022-08-18T12:28:34.260Z,29.30
2022-08-18T12:30:16.584Z,29.40
2022-08-18T12:31:52.409Z,29.30
2022-08-18T12:33:34.587Z,29.50
2022-08-18T12:39:15.421Z,29.30
2022-08-18T12:40:48.551Z,29.30
2022-08-18T12:42:21.725Z,29.50
2022-08-18T12:43:59.186Z,29.40
2022-08-18T12:45:33.051Z,29.40
2022-08-18T12:47:13.308Z,29.40
2022-08-18T12:48:46.531Z,29.30
2022-08-18T12:50:31.212Z,29.20
2022-08-18T12:52:08.734Z,29.20
2022-08-18T12:53:59.394Z,28.70
2022-08-18T12:55:37.637Z,28.90
2022-08-18T12:57:33.329Z,28.60
2022-08-18T12:59:15.379Z,28.60
2022-08-18T13:00:51.370Z,28.80
2022-08-18T13:02:24.670Z,28.90
2022-08-18T13:04:11.450Z,28.60
2022-08-18T13:05:48.488Z,28.50
2022-08-18T13:07:23.100Z,28.50
2022-08-18T13:08:56.748Z,28.30
2022-08-18T13:10:42.823Z,28.40
2022-08-18T13:12:19.499Z,28.60
2022-08-18T13:13:56.318Z,28.70
2022-08-18T13:15:30.164Z,28.70
2022-08-18T13:17:03.420Z,28.90
2022-08-18T13:18:43.011Z,29.00
2022-08-18T13:20:17.792Z,29.30
2022-08-18T13:21:52.429Z,29.40
2022-08-18T13:23:27.163Z,29.40
2022-08-18T13:25:00.404Z,29.00
2022-08-18T13:26:36.791Z,29.20
2022-08-18T13:28:10.169Z,29.30
2022-08-18T13:29:43.339Z,29.70
2022-08-18T13:31:17.809Z,30.00
2022-08-18T13:33:00.241Z,30.10
2022-08-18T13:34:36.154Z,30.20
2022-08-18T13:36:09.533Z,30.20
2022-08-18T13:37:44.091Z,30.30
2022-08-18T13:39:19.102Z,30.20
2022-08-18T13:40:52.803Z,30.40
2022-08-18T13:42:30.362Z,30.90
2022-08-18T13:44:07.616Z,31.20
2022-08-18T13:45:46.939Z,31.20
2022-08-18T13:47:29.287Z,31.00
2022-08-18T13:49:03.562Z,30.90
2022-08-18T13:50:39.016Z,30.60
2022-08-18T13:52:33.098Z,31.20
2022-08-18T13:54:29.601Z,32.00
2022-08-18T13:56:02.213Z,32.80
2022-08-18T13:57:38.396Z,33.20
2022-08-18T13:59:11.590Z,33.30
2022-08-18T14:00:44.894Z,33.20
2022-08-18T14:02:19.773Z,32.70
2022-08-18T14:04:00.156Z,31.30
2022-08-18T14:05:36.506Z,30.80
2022-08-18T14:07:27.711Z,30.80
2022-08-18T14:09:01.992Z,30.80
2022-08-18T14:11:00.592Z,30.60
2022-08-18T14:12:34.991Z,29.90
2022-08-18T14:14:08.197Z,30.10
2022-08-18T14:15:41.551Z,30.10
2022-08-18T14:17:15.493Z,30.10
2022-08-18T14:19:09.509Z,30.30
2022-08-18T14:21:01.780Z,30.40
2022-08-18T14:22:52.279Z,30.80
2022-08-18T14:24:48.588Z,30.70
2022-08-18T14:26:41.011Z,30.30
2022-08-18T14:28:15.348Z,30.40
2022-08-18T14:29:51.483Z,30.10
2022-08-18T14:31:24.887Z,29.70
2022-08-18T14:33:01.357Z,29.70
2022-08-18T14:34:34.976Z,29.80
2022-08-18T14:36:10.009Z,29.70
2022-08-18T14:37:43.409Z,29.90
2022-08-18T14:39:16.595Z,29.70
2022-08-18T14:40:50.303Z,29.80
2022-08-18T14:42:33.043Z,30.00
2022-08-18T14:44:17.806Z,30.10
2022-08-18T14:45:58.265Z,29.80
2022-08-18T14:47:32.970Z,29.60
2022-08-18T14:49:11.473Z,29.40
2022-08-18T14:50:50.207Z,29.30
2022-08-18T14:52:23.738Z,29.60
2022-08-18T14:53:56.848Z,30.00
2022-08-18T14:55:30.728Z,30.00
2022-08-18T14:57:05.448Z,29.80
2022-08-18T14:58:40.930Z,29.80
2022-08-18T15:00:20.974Z,30.10
2022-08-18T15:01:56.495Z,30.30
2022-08-18T15:03:31.851Z,30.30
2022-08-18T15:05:19.827Z,30.20
2022-08-18T15:06:57.854Z,30.20
2022-08-18T15:08:31.037Z,29.80
2022-08-18T15:10:15.339Z,29.40
2022-08-18T15:11:51.011Z,29.60
2022-08-18T15:13:26.511Z,29.40
2022-08-18T15:15:03.772Z,29.40
2022-08-18T15:16:38.665Z,29.50
2022-08-18T15:18:13.499Z,29.50
2022-08-18T15:19:58.854Z,29.20
2022-08-18T15:21:51.433Z,29.30
2022-08-18T15:23:43.991Z,29.40
2022-08-18T15:25:35.056Z,29.30
2022-08-18T15:27:10.410Z,28.80
2022-08-18T15:28:52.660Z,29.00
2022-08-18T15:30:28.205Z,29.20
2022-08-18T15:32:05.803Z,29.50
2022-08-18T15:33:43.491Z,29.60
2022-08-18T15:35:23.473Z,29.30
2022-08-18T15:36:57.058Z,29.40
2022-08-18T15:38:30.293Z,29.50
2022-08-18T15:40:30.213Z,29.50
2022-08-18T15:42:11.761Z,29.40
2022-08-18T15:43:48.203Z,29.40
2022-08-18T15:45:26.585Z,29.20
2022-08-18T15:47:04.589Z,29.10
2022-08-18T15:48:37.729Z,28.90
2022-08-18T15:50:21.969Z,28.60
2022-08-18T15:51:59.496Z,28.60
2022-08-18T15:53:33.178Z,28.90
2022-08-18T15:55:13.353Z,29.10
2022-08-18T15:56:55.938Z,29.10
2022-08-18T15:58:31.613Z,29.10
2022-08-18T16:00:05.839Z,29.20
2022-08-18T16:01:48.278Z,29.20
2022-08-18T16:03:24.561Z,29.20
2022-08-18T16:04:57.727Z,29.10
2022-08-18T16:06:32.440Z,29.10
2022-08-18T16:08:07.373Z,29.10
2022-08-18T16:09:43.512Z,29.00
2022-08-18T16:11:29.228Z,28.80
2022-08-18T16:13:04.646Z,28.90
2022-08-18T16:14:39.343Z,28.90
2022-08-18T16:16:15.391Z,28.90
2022-08-18T16:18:02.798Z,28.80
2022-08-18T16:19:38.592Z,28.60
2022-08-18T16:21:14.020Z,28.60
2022-08-18T16:22:46.831Z,28.50
2022-08-18T16:24:19.983Z,28.60
2022-08-18T16:25:53.125Z,28.50
2022-08-18T16:27:31.561Z,28.40
2022-08-18T16:29:04.757Z,28.30
2022-08-18T16:30:37.919Z,28.50
2022-08-18T16:32:16.340Z,28.50
2022-08-18T16:33:49.859Z,28.70
2022-08-18T16:35:24.557Z,28.70
2022-08-18T16:36:57.850Z,28.60
2022-08-18T16:38:31.030Z,28.50
2022-08-18T16:40:04.898Z,28.50
2022-08-18T16:41:38.783Z,28.50
2022-08-18T16:43:12.981Z,28.50
2022-08-18T16:44:46.700Z,28.30
2022-08-18T16:46:25.261Z,28.20
2022-08-18T16:47:58.470Z,28.10
2022-08-18T16:49:31.874Z,28.00
2022-08-18T16:51:06.608Z,27.90
2022-08-18T16:52:42.561Z,27.70
2022-08-18T16:54:16.394Z,27.70
2022-08-18T16:55:49.672Z,27.60
2022-08-18T16:57:53.818Z,27.70
2022-08-18T16:59:46.249Z,27.70
2022-08-18T17:01:48.828Z,27.70
2022-08-18T17:03:40.590Z,27.80
2022-08-18T17:05:13.799Z,27.70
2022-08-18T17:06:48.466Z,27.70
2022-08-18T17:08:21.613Z,27.60
2022-08-18T17:09:54.802Z,27.50
2022-08-18T17:11:29.084Z,27.40
2022-08-18T17:13:06.813Z,27.40
2022-08-18T17:14:40.463Z,27.40
2022-08-18T17:16:14.515Z,27.40
2022-08-18T17:17:47.682Z,27.40
2022-08-18T17:19:20.967Z,27.40
2022-08-18T17:20:55.382Z,27.30
2022-08-18T17:22:30.149Z,27.30
2022-08-18T17:24:06.953Z,27.30
2022-08-18T17:25:39.630Z,27.30
2022-08-18T17:27:26.142Z,27.30
2022-08-18T17:29:10.174Z,27.30
2022-08-18T17:30:48.921Z,27.30
2022-08-18T17:32:27.214Z,27.20
2022-08-18T17:34:07.636Z,27.20
2022-08-18T17:35:44.314Z,27.10
2022-08-18T17:37:19.008Z,27.20
2022-08-18T17:38:58.530Z,27.10
2022-08-18T17:40:37.556Z,27.10
2022-08-18T17:42:27.465Z,27.10
2022-08-18T17:44:03.081Z,27.10
2022-08-18T17:45:38.944Z,27.10
2022-08-18T17:47:19.017Z,27.00
2022-08-18T17:48:57.057Z,26.90
2022-08-18T17:50:52.743Z,27.00
2022-08-18T17:52:28.357Z,26.80
2022-08-18T17:54:13.133Z,26.80
2022-08-18T17:55:50.838Z,26.80
2022-08-18T17:57:28.089Z,26.80
2022-08-18T17:59:45.838Z,26.80
2022-08-18T18:01:03.013Z,26.70
2022-08-18T18:02:36.393Z,26.70
2022-08-18T18:04:10.479Z,26.70
2022-08-18T18:05:47.696Z,26.70
2022-08-18T18:07:23.217Z,26.60
2022-08-18T18:08:59.481Z,26.60
2022-08-18T18:10:51.110Z,26.60
2022-08-18T18:12:28.474Z,26.60
2022-08-18T18:14:23.986Z,26.50
2022-08-18T18:16:00.773Z,26.50
2022-08-18T18:17:37.673Z,26.40
2022-08-18T18:19:14.311Z,26.40
2022-08-18T18:20:58.301Z,26.40
2022-08-18T18:22:31.462Z,26.40
2022-08-18T18:24:15.634Z,26.30
2022-08-18T18:25:51.329Z,26.30
2022-08-18T18:27:28.500Z,26.30
2022-08-18T18:29:19.131Z,26.20
2022-08-18T18:30:52.279Z,26.20
2022-08-18T18:32:29.241Z,26.20
2022-08-18T18:34:06.919Z,26.20
2022-08-18T18:35:59.137Z,26.10
2022-08-18T18:37:33.311Z,26.10
2022-08-18T18:39:10.910Z,26.10
2022-08-18T18:41:00.923Z,26.00
2022-08-18T18:42:36.430Z,26.00
2022-08-18T18:44:11.668Z,25.90
2022-08-18T18:46:01.215Z,25.90
2022-08-18T18:47:55.877Z,25.90
2022-08-18T18:49:35.800Z,25.80
2022-08-18T18:51:19.338Z,25.80
2022-08-18T18:53:17.872Z,25.80
2022-08-18T18:54:59.646Z,25.70
2022-08-18T18:56:39.584Z,25.70
2022-08-18T18:58:23.776Z,25.70
2022-08-18T19:00:14.317Z,25.60
2022-08-18T19:01:58.815Z,25.60
2022-08-18T19:03:38.529Z,25.50
2022-08-18T19:05:21.974Z,25.50
2022-08-18T19:07:00.895Z,25.40
2022-08-18T19:08:41.747Z,25.30
2022-08-18T19:10:22.621Z,25.30
2022-08-18T19:12:09.403Z,25.30
2022-08-18T19:13:51.017Z,25.20
2022-08-18T19:15:29.881Z,25.20
2022-08-18T19:17:13.315Z,25.10
2022-08-18T19:18:57.717Z,25.20
2022-08-18T19:22:01.610Z,25.20
2022-08-18T19:22:49.025Z,25.10
2022-08-18T19:24:24.726Z,25.10
2022-08-18T19:26:00.386Z,25.00
2022-08-18T19:27:47.174Z,25.00
2022-08-18T19:29:25.647Z,25.00
2022-08-18T19:31:03.525Z,25.00
2022-08-18T19:32:43.861Z,25.00
2022-08-18T19:34:22.812Z,25.00
2022-08-18T19:36:19.563Z,25.10
2022-08-18T19:38:04.819Z,25.10
2022-08-18T19:39:44.905Z,25.10
2022-08-18T19:41:30.676Z,25.10
2022-08-18T19:43:12.578Z,25.00
2022-08-18T19:45:15.023Z,25.00
2022-08-18T19:46:48.799Z,25.00
2022-08-18T19:48:28.836Z,24.90
2022-08-18T19:50:13.721Z,24.90
2022-08-18T19:51:51.018Z,24.80
2022-08-18T19:53:44.340Z,24.80
2022-08-18T19:55:32.907Z,24.60
2022-08-18T19:57:17.518Z,24.70
2022-08-18T19:59:18.335Z,24.60
2022-08-18T20:00:56.642Z,24.60
2022-08-18T20:02:44.302Z,24.50
2022-08-18T20:04:28.156Z,24.60
2022-08-18T20:06:34.404Z,24.60
2022-08-18T20:08:39.003Z,24.60
2022-08-18T20:10:55.466Z,24.50
2022-08-18T20:12:50.332Z,24.40
2022-08-18T20:14:25.630Z,24.40
2022-08-18T20:16:19.106Z,24.40
2022-08-18T20:18:04.873Z,24.30
2022-08-18T20:19:47.875Z,24.30
2022-08-18T20:21:46.480Z,24.20
2022-08-18T20:23:35.180Z,24.10
2022-08-18T20:25:26.005Z,24.10
2022-08-18T20:27:35.097Z,24.10
2022-08-18T20:29:12.370Z,24.00
2022-08-18T20:31:01.788Z,23.90
2022-08-18T20:32:37.385Z,23.90
2022-08-18T20:34:14.687Z,23.90
2022-08-18T20:35:53.782Z,23.80
2022-08-18T20:37:27.488Z,23.80
2022-08-18T20:39:21.403Z,23.80
2022-08-18T20:40:55.377Z,23.80
2022-08-18T20:42:56.414Z,23.80
2022-08-18T20:44:57.292Z,23.80
2022-08-18T20:46:43.502Z,23.70
2022-08-18T20:48:35.869Z,23.70
2022-08-18T20:50:44.582Z,23.70
2022-08-18T20:52:29.648Z,23.70
2022-08-18T20:54:13.339Z,23.70
2022-08-18T20:55:56.431Z,23.70
2022-08-18T20:57:34.905Z,23.70
2022-08-18T20:59:13.342Z,23.60
2022-08-18T21:00:52.024Z,23.60
2022-08-18T21:02:31.486Z,23.50
2022-08-18T21:04:04.793Z,23.50
2022-08-18T21:05:40.613Z,23.50
2022-08-18T21:07:35.929Z,23.50
2022-08-18T21:09:10.443Z,23.50
2022-08-18T21:10:50.354Z,23.50
2022-08-18T21:12:26.483Z,23.50
2022-08-18T21:14:03.727Z,23.50
2022-08-18T21:15:39.440Z,23.50
2022-08-18T21:17:15.364Z,23.50
2022-08-18T21:18:54.498Z,23.50
2022-08-18T21:20:29.726Z,23.50
2022-08-18T21:22:05.039Z,23.50
2022-08-18T21:23:42.039Z,23.50
2022-08-18T21:25:18.148Z,23.50
2022-08-18T21:26:54.928Z,23.50
2022-08-18T21:28:32.372Z,23.40
2022-08-18T21:30:09.100Z,23.40
2022-08-18T21:31:45.146Z,23.40
2022-08-18T21:33:21.121Z,23.30
2022-08-18T21:34:55.786Z,23.30
2022-08-18T21:36:31.676Z,23.30
2022-08-18T21:38:07.189Z,23.20
2022-08-18T21:39:55.563Z,23.30
2022-08-18T21:41:32.266Z,23.20
2022-08-18T21:43:06.462Z,23.20
2022-08-18T21:44:43.442Z,23.10
2022-08-18T21:46:24.989Z,23.10
2022-08-18T21:48:03.331Z,23.10
2022-08-18T21:49:37.705Z,23.00
2022-08-18T21:51:21.328Z,23.00
2022-08-18T21:52:56.894Z,23.00